Time;durP1;ratioP1;P1;durP2;ratioP2;P2;SDS_P1;SDS_P2;PMS_P1;PMS_P2;Temp;Humidity;BMP_temperature;BMP_pressure;BME280_temperature;BME280_humidity;BME280_pressure;Samples;Min_cycle;Max_cycle;Signal;HPM_P1;HPM_P2
2022/04/08 00:01:34;;;;;;;2.30;1.20;;;;;;;;;;5053292;28;20199;-76
2022/04/08 00:04:02;;;;;;;2.43;1.20;;;;;;;;;;5063200;28;20209;-75
2022/04/08 00:06:32;;;;;;;2.30;0.90;;;;;;;;;;5063821;28;20227;-76
2022/04/08 00:09:00;;;;;;;2.53;1.10;;;;;;;;;;5066915;28;20661;-76
2022/04/08 00:11:29;;;;;;;2.37;1.00;;;;;;;;;;5068694;28;21144;-78
2022/04/08 00:13:57;;;;;;;2.90;1.30;;;;;;;;;;5053242;28;20253;-77
2022/04/08 00:16:26;;;;;;;1.87;1.00;;;;;;;;;;5058671;28;20210;-76
2022/04/08 00:18:55;;;;;;;2.93;1.73;;;;;;;;;;5072943;28;20206;-76
2022/04/08 00:21:25;;;;;;;4.00;1.37;;;;;;;;;;5071176;28;20341;-75
2022/04/08 00:23:55;;;;;;;3.30;1.37;;;;;;;;;;5055712;28;20282;-76
2022/04/08 00:26:23;;;;;;;3.37;1.30;;;;;;;;;;5053143;28;20728;-76
2022/04/08 00:28:52;;;;;;;3.17;1.20;;;;;;;;;;5058287;28;20202;-75
2022/04/08 00:31:20;;;;;;;5.30;1.13;;;;;;;;;;5069225;28;20201;-75
2022/04/08 00:33:49;;;;;;;3.20;1.17;;;;;;;;;;5056124;28;20252;-75
2022/04/08 00:36:17;;;;;;;4.67;1.30;;;;;;;;;;5071153;28;20718;-76
2022/04/08 00:38:46;;;;;;;6.43;1.63;;;;;;;;;;5052778;28;20210;-76
2022/04/08 00:41:16;;;;;;;4.97;1.30;;;;;;;;;;5053474;28;20203;-75
2022/04/08 00:43:44;;;;;;;6.53;1.50;;;;;;;;;;5062128;28;20195;-76
2022/04/08 00:46:12;;;;;;;6.90;1.53;;;;;;;;;;5071140;28;20272;-77
2022/04/08 00:48:41;;;;;;;6.27;1.77;;;;;;;;;;5071109;28;20649;-74
2022/04/08 00:51:10;;;;;;;5.57;1.60;;;;;;;;;;5061902;28;20203;-75
2022/04/08 00:53:38;;;;;;;5.20;1.67;;;;;;;;;;5052257;28;20230;-75
2022/04/08 00:56:07;;;;;;;6.27;1.60;;;;;;;;;;5051895;28;20207;-74
2022/04/08 00:58:37;;;;;;;4.53;1.43;;;;;;;;;;5052852;28;20235;-75
2022/04/08 01:01:06;;;;;;;3.03;1.33;;;;;;;;;;5052512;28;20215;-76
2022/04/08 01:03:34;;;;;;;4.37;1.63;;;;;;;;;;5051561;28;20917;-75
2022/04/08 01:06:03;;;;;;;3.23;1.27;;;;;;;;;;5057127;28;20202;-76
2022/04/08 01:08:31;;;;;;;4.77;1.67;;;;;;;;;;5058044;28;20244;-76
2022/04/08 01:11:00;;;;;;;5.57;1.60;;;;;;;;;;5052613;28;20256;-75
2022/04/08 01:13:29;;;;;;;4.90;1.60;;;;;;;;;;5052126;28;20670;-75
2022/04/08 01:15:59;;;;;;;5.67;1.60;;;;;;;;;;5052564;28;20257;-76
2022/04/08 01:18:27;;;;;;;6.13;1.60;;;;;;;;;;5056318;28;20306;-76
2022/04/08 01:20:56;;;;;;;5.43;1.63;;;;;;;;;;5052775;28;20207;-75
2022/04/08 01:23:25;;;;;;;6.00;1.70;;;;;;;;;;5053654;28;20206;-76
2022/04/08 01:25:54;;;;;;;5.47;1.67;;;;;;;;;;5055043;28;20713;-76
2022/04/08 01:28:25;;;;;;;5.77;1.67;;;;;;;;;;5054775;28;20227;-75
2022/04/08 01:30:53;;;;;;;5.57;1.57;;;;;;;;;;5064806;28;20309;-75
2022/04/08 01:33:22;;;;;;;6.43;1.67;;;;;;;;;;5061151;28;20314;-75
2022/04/08 01:35:50;;;;;;;3.20;1.30;;;;;;;;;;5066488;28;20195;-75
2022/04/08 01:38:19;;;;;;;6.57;1.70;;;;;;;;;;5056121;28;20218;-75
2022/04/08 01:40:47;;;;;;;6.73;1.43;;;;;;;;;;5052445;28;20211;-75
2022/04/08 01:43:17;;;;;;;7.47;1.83;;;;;;;;;;5069174;28;20207;-75
2022/04/08 01:45:45;;;;;;;9.37;2.10;;;;;;;;;;5054487;28;20199;-76
2022/04/08 01:48:14;;;;;;;2.57;1.60;;;;;;;;;;5055484;28;20280;-74
2022/04/08 01:50:42;;;;;;;6.50;1.67;;;;;;;;;;5056703;28;20215;-74
2022/04/08 01:53:11;;;;;;;4.10;1.73;;;;;;;;;;5064333;28;20291;-74
2022/04/08 01:55:39;;;;;;;6.87;2.30;;;;;;;;;;5056102;28;20206;-74
2022/04/08 01:58:08;;;;;;;3.23;1.60;;;;;;;;;;5057513;28;20234;-74
2022/04/08 02:00:38;;;;;;;9.10;2.37;;;;;;;;;;5062719;28;20259;-75
2022/04/08 02:03:06;;;;;;;6.37;1.90;;;;;;;;;;5063982;28;20207;-74
2022/04/08 02:05:35;;;;;;;4.77;1.83;;;;;;;;;;5064076;28;20202;-74
2022/04/08 02:08:03;;;;;;;2.97;1.40;;;;;;;;;;5055260;28;20223;-74
2022/04/08 02:10:31;;;;;;;5.77;1.90;;;;;;;;;;5071674;28;20202;-74
2022/04/08 02:13:00;;;;;;;5.93;1.80;;;;;;;;;;5061682;28;20714;-74
2022/04/08 02:15:29;;;;;;;4.57;1.50;;;;;;;;;;5074221;28;20222;-74
2022/04/08 02:17:59;;;;;;;4.53;1.60;;;;;;;;;;5057712;28;20839;-74
2022/04/08 02:20:29;;;;;;;6.33;1.70;;;;;;;;;;5055069;28;20692;-74
2022/04/08 02:22:58;;;;;;;4.33;1.57;;;;;;;;;;5057347;28;20207;-74
2022/04/08 02:25:27;;;;;;;3.90;1.53;;;;;;;;;;5062703;28;20269;-74
2022/04/08 02:27:56;;;;;;;1.53;1.20;;;;;;;;;;5074967;28;20276;-74
2022/04/08 02:30:24;;;;;;;3.33;1.33;;;;;;;;;;5076656;28;20232;-74
2022/04/08 02:32:52;;;;;;;1.83;1.10;;;;;;;;;;5075597;28;20203;-74
2022/04/08 02:35:22;;;;;;;3.73;1.43;;;;;;;;;;5061619;28;20293;-74
2022/04/08 02:37:51;;;;;;;3.37;1.23;;;;;;;;;;5076693;28;20252;-74
2022/04/08 02:40:20;;;;;;;2.27;1.20;;;;;;;;;;5061302;28;20205;-74
2022/04/08 02:42:48;;;;;;;4.43;1.27;;;;;;;;;;5060377;28;20202;-74
2022/04/08 02:45:17;;;;;;;4.33;1.83;;;;;;;;;;5074931;28;20202;-74
2022/04/08 02:47:45;;;;;;;3.40;1.47;;;;;;;;;;5057506;28;20235;-74
2022/04/08 02:50:14;;;;;;;3.43;1.70;;;;;;;;;;5056498;28;20199;-73
2022/04/08 02:52:44;;;;;;;3.87;1.83;;;;;;;;;;5055894;28;20211;-74
2022/04/08 02:55:12;;;;;;;4.63;1.40;;;;;;;;;;5055922;28;20222;-74
2022/04/08 02:57:45;;;;;;;5.27;1.80;;;;;;;;;;5054840;28;20238;-74
2022/04/08 03:00:15;;;;;;;8.13;2.17;;;;;;;;;;5061824;28;20238;-74
2022/04/08 03:02:43;;;;;;;7.23;2.20;;;;;;;;;;5054166;28;20273;-74
2022/04/08 03:05:12;;;;;;;3.40;1.93;;;;;;;;;;5055083;28;20206;-74
2022/04/08 03:07:40;;;;;;;6.30;2.27;;;;;;;;;;5059379;28;20222;-74
2022/04/08 03:10:11;;;;;;;5.77;2.20;;;;;;;;;;5074469;28;20209;-74
2022/04/08 03:12:40;;;;;;;3.73;2.20;;;;;;;;;;5058082;28;20547;-75
2022/04/08 03:15:09;;;;;;;4.47;2.40;;;;;;;;;;5060319;28;20230;-76
2022/04/08 03:17:38;;;;;;;3.80;2.30;;;;;;;;;;5054122;28;20226;-75
2022/04/08 03:20:07;;;;;;;7.23;2.20;;;;;;;;;;5055521;28;20214;-74
2022/04/08 03:22:36;;;;;;;3.47;1.90;;;;;;;;;;5067798;28;20259;-74
2022/04/08 03:25:05;;;;;;;2.47;1.20;;;;;;;;;;5054636;28;20206;-75
2022/04/08 03:27:35;;;;;;;4.47;1.57;;;;;;;;;;5068187;28;20282;-76
2022/04/08 03:30:04;;;;;;;4.07;1.40;;;;;;;;;;5060776;28;20206;-75
2022/04/08 03:32:32;;;;;;;1.40;1.00;;;;;;;;;;5060163;28;20651;-76
2022/04/08 03:35:01;;;;;;;1.43;1.10;;;;;;;;;;5057351;28;20275;-74
2022/04/08 03:37:29;;;;;;;1.10;1.00;;;;;;;;;;5069269;28;20702;-76
2022/04/08 03:39:57;;;;;;;2.50;0.97;;;;;;;;;;5053621;28;20210;-76
2022/04/08 03:42:26;;;;;;;1.83;1.00;;;;;;;;;;5053243;28;20217;-76
2022/04/08 03:44:56;;;;;;;1.33;0.90;;;;;;;;;;5054742;28;20195;-76
2022/04/08 03:47:24;;;;;;;2.73;1.07;;;;;;;;;;5054134;28;20238;-76
2022/04/08 03:49:54;;;;;;;1.33;0.90;;;;;;;;;;5053980;28;20229;-73
2022/04/08 03:52:22;;;;;;;0.73;0.73;;;;;;;;;;5053379;28;20649;-74
2022/04/08 03:54:50;;;;;;;1.23;0.93;;;;;;;;;;5062451;28;20265;-74
2022/04/08 03:57:19;;;;;;;1.43;1.10;;;;;;;;;;5053782;28;20282;-75
2022/04/08 03:59:49;;;;;;;1.07;0.80;;;;;;;;;;5065619;28;20256;-75
2022/04/08 04:02:19;;;;;;;1.20;0.90;;;;;;;;;;5064871;28;20205;-74
2022/04/08 04:04:49;;;;;;;1.20;0.90;;;;;;;;;;5053659;28;20298;-74
2022/04/08 04:07:18;;;;;;;2.50;0.80;;;;;;;;;;5065375;28;20232;-75
2022/04/08 04:09:46;;;;;;;1.17;0.70;;;;;;;;;;5053327;28;20266;-74
2022/04/08 04:12:15;;;;;;;1.50;0.80;;;;;;;;;;5052858;28;20251;-75
2022/04/08 04:14:43;;;;;;;2.57;0.97;;;;;;;;;;5058025;28;20655;-74
2022/04/08 04:17:12;;;;;;;2.87;1.07;;;;;;;;;;5070778;28;20224;-74
2022/04/08 04:19:42;;;;;;;2.47;0.93;;;;;;;;;;5061232;28;20679;-75
2022/04/08 04:22:10;;;;;;;2.03;0.60;;;;;;;;;;5062743;28;20273;-75
2022/04/08 04:24:38;;;;;;;1.30;0.70;;;;;;;;;;5062327;28;20204;-75
2022/04/08 04:27:07;;;;;;;1.93;0.50;;;;;;;;;;5063704;28;20273;-75
2022/04/08 04:29:35;;;;;;;1.23;0.90;;;;;;;;;;5052733;28;20253;-75
2022/04/08 04:32:05;;;;;;;1.57;0.60;;;;;;;;;;5061039;28;20207;-75
2022/04/08 04:34:36;;;;;;;1.40;0.73;;;;;;;;;;5058918;28;20272;-75
2022/04/08 04:37:08;;;;;;;3.03;0.70;;;;;;;;;;5073612;28;20322;-75
2022/04/08 04:39:37;;;;;;;2.27;0.97;;;;;;;;;;5065852;28;20214;-75
2022/04/08 04:42:07;;;;;;;1.23;0.80;;;;;;;;;;5061304;28;20671;-75
2022/04/08 04:44:35;;;;;;;1.53;0.63;;;;;;;;;;5062930;28;20226;-74
2022/04/08 04:47:04;;;;;;;1.23;0.80;;;;;;;;;;5065383;28;20233;-75
2022/04/08 04:49:32;;;;;;;2.07;1.00;;;;;;;;;;5073212;28;20581;-74
2022/04/08 04:52:00;;;;;;;2.50;1.30;;;;;;;;;;5060210;28;20259;-75
2022/04/08 04:54:30;;;;;;;1.93;1.27;;;;;;;;;;5057139;28;20254;-74
2022/04/08 04:56:59;;;;;;;3.23;1.50;;;;;;;;;;5056526;28;20287;-75
2022/04/08 04:59:27;;;;;;;1.70;1.60;;;;;;;;;;5065932;28;20200;-75
2022/04/08 05:01:56;;;;;;;2.63;1.50;;;;;;;;;;5067349;28;20208;-75
2022/04/08 05:04:27;;;;;;;1.77;1.50;;;;;;;;;;5058416;28;20199;-75
2022/04/08 05:06:56;;;;;;;2.80;1.40;;;;;;;;;;5064822;28;20220;-75
2022/04/08 05:09:24;;;;;;;2.47;1.27;;;;;;;;;;5060877;28;20729;-76
2022/04/08 05:11:54;;;;;;;2.57;1.20;;;;;;;;;;5062262;28;20200;-75
2022/04/08 05:14:24;;;;;;;4.50;1.60;;;;;;;;;;5052096;28;20220;-76
2022/04/08 05:16:52;;;;;;;2.57;1.30;;;;;;;;;;5052448;28;20228;-75
2022/04/08 05:19:26;;;;;;;2.80;1.20;;;;;;;;;;5053042;28;20229;-75
2022/04/08 05:21:55;;;;;;;4.37;1.43;;;;;;;;;;5051698;28;20253;-76
2022/04/08 05:24:23;;;;;;;5.47;1.43;;;;;;;;;;5052336;28;20209;-75
2022/04/08 05:26:53;;;;;;;4.60;1.30;;;;;;;;;;5052030;28;20219;-75
2022/04/08 05:29:21;;;;;;;2.77;1.17;;;;;;;;;;5070501;28;20281;-75
2022/04/08 05:31:50;;;;;;;1.53;0.93;;;;;;;;;;5073165;28;20216;-75
2022/04/08 05:34:19;;;;;;;5.57;1.33;;;;;;;;;;5059193;28;20217;-75
2022/04/08 05:36:47;;;;;;;5.20;1.30;;;;;;;;;;5058695;28;21279;-74
2022/04/08 05:39:16;;;;;;;7.60;1.27;;;;;;;;;;5066904;28;20255;-75
2022/04/08 05:41:44;;;;;;;6.10;1.30;;;;;;;;;;5057782;28;20227;-75
2022/04/08 05:44:14;;;;;;;3.70;1.10;;;;;;;;;;5065451;28;20222;-76
2022/04/08 05:46:43;;;;;;;7.77;1.53;;;;;;;;;;5062467;28;20703;-75
2022/04/08 05:49:12;;;;;;;4.27;1.37;;;;;;;;;;5060623;28;20205;-75
2022/04/08 05:51:40;;;;;;;4.93;1.70;;;;;;;;;;5076368;28;20246;-75
2022/04/08 05:54:09;;;;;;;4.57;1.77;;;;;;;;;;5075366;28;20204;-75
2022/04/08 05:56:37;;;;;;;8.67;1.93;;;;;;;;;;5075238;28;20223;-75
2022/04/08 05:59:06;;;;;;;8.50;1.90;;;;;;;;;;5075165;28;20204;-75
2022/04/08 06:01:35;;;;;;;6.23;1.93;;;;;;;;;;5074691;28;20216;-75
2022/04/08 06:04:04;;;;;;;6.17;1.90;;;;;;;;;;5058888;28;20308;-75
2022/04/08 06:06:33;;;;;;;7.17;1.80;;;;;;;;;;5082441;28;20216;-75
2022/04/08 06:09:02;;;;;;;12.23;2.33;;;;;;;;;;5096107;28;20208;-75
2022/04/08 06:11:30;;;;;;;10.90;2.23;;;;;;;;;;5096160;28;20607;-75
2022/04/08 06:13:58;;;;;;;7.13;2.17;;;;;;;;;;5082980;28;20666;-76
2022/04/08 06:16:27;;;;;;;9.83;2.40;;;;;;;;;;5075909;28;20232;-76
2022/04/08 06:18:57;;;;;;;12.40;2.80;;;;;;;;;;5058760;28;20201;-75
2022/04/08 06:21:25;;;;;;;7.77;2.40;;;;;;;;;;5055729;28;20204;-75
2022/04/08 06:23:54;;;;;;;7.27;2.73;;;;;;;;;;5068612;28;20204;-75
2022/04/08 06:26:34;;;;;;;5.37;2.57;;;;;;;;;;5063496;28;20191;-75
2022/04/08 06:32:31;;;;;;;8.83;2.70;;;;;;;;;;5055676;28;20181;-76
2022/04/08 06:35:01;;;;;;;7.87;2.87;;;;;;;;;;5073280;28;20209;-75
2022/04/08 06:37:29;;;;;;;6.60;3.03;;;;;;;;;;5068839;28;20288;-75
2022/04/08 06:40:03;;;;;;;6.83;2.60;;;;;;;;;;5055327;28;20213;-76
2022/04/08 06:42:31;;;;;;;8.47;2.80;;;;;;;;;;5061613;28;20201;-75
2022/04/08 06:45:00;;;;;;;7.97;2.70;;;;;;;;;;5073246;28;20195;-75
2022/04/08 06:47:29;;;;;;;10.10;2.57;;;;;;;;;;5072319;28;20762;-75
2022/04/08 06:49:57;;;;;;;8.83;2.80;;;;;;;;;;5054885;28;20206;-75
2022/04/08 06:52:27;;;;;;;7.07;2.77;;;;;;;;;;5065585;28;20272;-75
2022/04/08 06:54:56;;;;;;;8.13;2.30;;;;;;;;;;5058617;28;20292;-75
2022/04/08 06:57:24;;;;;;;6.77;2.60;;;;;;;;;;5054964;28;20333;-75
2022/04/08 06:59:52;;;;;;;9.73;2.70;;;;;;;;;;5054880;28;20689;-75
2022/04/08 07:02:21;;;;;;;24.60;16.30;;;;;;;;;;5055287;28;20257;-74
2022/04/08 07:04:51;;;;;;;16.70;8.10;;;;;;;;;;5068982;28;20213;-75
2022/04/08 07:07:19;;;;;;;9.30;3.00;;;;;;;;;;5089992;28;20625;-75
2022/04/08 07:09:49;;;;;;;10.70;2.70;;;;;;;;;;5074547;28;20206;-74
2022/04/08 07:12:17;;;;;;;9.20;2.47;;;;;;;;;;5074565;28;20206;-74
2022/04/08 07:14:46;;;;;;;6.83;2.40;;;;;;;;;;5058998;28;20244;-75
2022/04/08 07:17:14;;;;;;;9.17;2.40;;;;;;;;;;5060047;28;20720;-75
2022/04/08 07:20:04;;;;;;;8.40;2.17;;;;;;;;;;5054326;28;20207;-74
2022/04/08 07:22:33;;;;;;;8.03;2.30;;;;;;;;;;5054206;28;20203;-74
2022/04/08 07:25:03;;;;;;;8.13;2.53;;;;;;;;;;5054526;28;20203;-74
2022/04/08 07:27:31;;;;;;;8.40;2.80;;;;;;;;;;5056998;28;21190;-74
2022/04/08 07:30:00;;;;;;;7.20;2.23;;;;;;;;;;5060884;28;20529;-74
2022/04/08 07:32:32;;;;;;;7.97;2.20;;;;;;;;;;5068793;28;20202;-74
2022/04/08 07:35:00;;;;;;;6.53;2.10;;;;;;;;;;5063058;28;20204;-74
2022/04/08 07:37:29;;;;;;;7.70;2.03;;;;;;;;;;5062196;28;20288;-74
2022/04/08 07:39:58;;;;;;;5.00;1.80;;;;;;;;;;5053839;28;20215;-73
2022/04/08 07:42:28;;;;;;;6.53;2.07;;;;;;;;;;5053930;28;20210;-73
2022/04/08 07:44:56;;;;;;;4.67;2.00;;;;;;;;;;5053759;28;20199;-73
2022/04/08 07:47:28;;;;;;;3.60;1.70;;;;;;;;;;5069490;28;20316;-74
2022/04/08 07:49:58;;;;;;;5.67;2.07;;;;;;;;;;5073813;28;20230;-73
2022/04/08 07:52:26;;;;;;;4.03;1.90;;;;;;;;;;5073168;28;20255;-73
2022/04/08 07:54:55;;;;;;;5.10;1.93;;;;;;;;;;5059203;28;20238;-73
2022/04/08 07:57:23;;;;;;;7.10;2.00;;;;;;;;;;5053563;28;20223;-74
2022/04/08 07:59:53;;;;;;;8.00;1.97;;;;;;;;;;5053666;28;20211;-73
2022/04/08 08:02:23;;;;;;;9.53;2.40;;;;;;;;;;5053868;28;20207;-73
2022/04/08 08:04:52;;;;;;;6.70;2.03;;;;;;;;;;5052975;23;20247;-73
2022/04/08 08:07:20;;;;;;;9.33;2.90;;;;;;;;;;5024397;28;20212;-73
2022/04/08 08:09:48;;;;;;;4.70;2.00;;;;;;;;;;5020405;28;20204;-72
2022/04/08 08:12:23;;;;;;;9.00;2.67;;;;;;;;;;5026388;28;20211;-74
2022/04/08 08:14:54;;;;;;;5.10;2.20;;;;;;;;;;5021314;28;20585;-73
2022/04/08 08:17:24;;;;;;;7.33;2.27;;;;;;;;;;5013719;28;20236;-74
2022/04/08 08:19:52;;;;;;;7.00;2.60;;;;;;;;;;5020423;28;20208;-73
2022/04/08 08:22:24;;;;;;;6.17;2.60;;;;;;;;;;5026180;28;20250;-74
2022/04/08 08:24:53;;;;;;;7.97;3.07;;;;;;;;;;5021509;28;20626;-73
2022/04/08 08:27:21;;;;;;;9.27;3.00;;;;;;;;;;5014927;28;20290;-73
2022/04/08 08:29:50;;;;;;;6.07;2.80;;;;;;;;;;5014362;28;20239;-74
2022/04/08 08:32:18;;;;;;;5.70;2.67;;;;;;;;;;5012910;28;20216;-74
2022/04/08 08:34:48;;;;;;;7.27;2.93;;;;;;;;;;5016006;28;20291;-73
2022/04/08 08:37:16;;;;;;;5.93;2.73;;;;;;;;;;5020899;28;20228;-73
2022/04/08 08:39:45;;;;;;;8.43;3.10;;;;;;;;;;5014110;28;20205;-73
2022/04/08 08:42:13;;;;;;;8.50;2.80;;;;;;;;;;5015504;28;20207;-73
2022/04/08 08:44:42;;;;;;;8.37;2.70;;;;;;;;;;5015433;28;20205;-73
2022/04/08 08:47:12;;;;;;;7.47;2.67;;;;;;;;;;5021956;28;20221;-73
2022/04/08 08:49:46;;;;;;;5.57;2.07;;;;;;;;;;5013722;28;20572;-74
2022/04/08 08:52:16;;;;;;;6.37;2.60;;;;;;;;;;5066108;23;20235;-73
2022/04/08 08:54:45;;;;;;;5.87;2.70;;;;;;;;;;5036320;23;20290;-73
2022/04/08 08:57:15;;;;;;;8.07;2.97;;;;;;;;;;5029354;28;20698;-73
2022/04/08 08:59:44;;;;;;;6.90;3.17;;;;;;;;;;5032250;28;20203;-73
2022/04/08 09:02:13;;;;;;;8.33;3.33;;;;;;;;;;5025731;28;20577;-73
2022/04/08 09:04:42;;;;;;;6.67;2.90;;;;;;;;;;5018743;28;20211;-73
2022/04/08 09:07:23;;;;;;;8.47;3.53;;;;;;;;;;5017286;28;20632;-73
2022/04/08 09:09:52;;;;;;;6.90;3.47;;;;;;;;;;5016713;28;20899;-74
2022/04/08 09:12:23;;;;;;;6.53;3.20;;;;;;;;;;5017197;28;20981;-74
2022/04/08 09:14:52;;;;;;;6.27;3.10;;;;;;;;;;5016702;28;20258;-75
2022/04/08 09:17:21;;;;;;;6.23;2.60;;;;;;;;;;5035678;28;20220;-75
2022/04/08 09:19:49;;;;;;;5.20;3.03;;;;;;;;;;5036949;28;20218;-75
2022/04/08 09:22:18;;;;;;;5.33;2.57;;;;;;;;;;5036948;28;20207;-75
2022/04/08 09:24:49;;;;;;;4.60;2.30;;;;;;;;;;5036117;28;20265;-75
2022/04/08 09:27:17;;;;;;;3.40;2.10;;;;;;;;;;5019627;28;20223;-75
2022/04/08 09:29:46;;;;;;;4.27;3.03;;;;;;;;;;5016666;28;20204;-75
2022/04/08 09:32:34;;;;;;;5.20;2.90;;;;;;;;;;5017084;28;20618;-75
2022/04/08 09:35:03;;;;;;;5.73;2.67;;;;;;;;;;5032344;28;20543;-75
2022/04/08 09:37:31;;;;;;;4.20;2.10;;;;;;;;;;5036186;28;20231;-76
2022/04/08 09:40:03;;;;;;;2.50;1.83;;;;;;;;;;5036197;28;20210;-76
2022/04/08 09:42:43;;;;;;;3.07;2.30;;;;;;;;;;5030700;28;20202;-75
2022/04/08 09:45:12;;;;;;;5.47;2.40;;;;;;;;;;5029014;28;20203;-75
2022/04/08 09:47:41;;;;;;;3.20;2.20;;;;;;;;;;5036074;28;20310;-76
2022/04/08 09:50:10;;;;;;;3.60;2.23;;;;;;;;;;5036221;28;20208;-75
2022/04/08 09:52:39;;;;;;;4.43;1.97;;;;;;;;;;5035842;28;20204;-76
2022/04/08 09:55:10;;;;;;;2.93;1.97;;;;;;;;;;5032934;28;20250;-76
2022/04/08 09:57:39;;;;;;;2.23;2.00;;;;;;;;;;5036283;28;20281;-75
2022/04/08 10:00:09;;;;;;;3.70;1.83;;;;;;;;;;5034510;28;20211;-77
2022/04/08 10:02:41;;;;;;;4.17;2.37;;;;;;;;;;5043411;28;20210;-75
2022/04/08 10:05:10;;;;;;;5.40;2.53;;;;;;;;;;5052424;28;20643;-76
2022/04/08 10:07:41;;;;;;;2.87;2.00;;;;;;;;;;5018015;28;20715;-74
2022/04/08 10:10:23;;;;;;;4.60;2.23;;;;;;;;;;5016232;28;20296;-75
2022/04/08 10:13:01;;;;;;;3.73;2.10;;;;;;;;;;5018186;28;20250;-75
2022/04/08 10:15:33;;;;;;;7.47;2.70;;;;;;;;;;5034862;28;20658;-75
2022/04/08 10:18:03;;;;;;;4.47;2.47;;;;;;;;;;5036225;28;20297;-74
2022/04/08 10:20:32;;;;;;;6.90;2.60;;;;;;;;;;5035176;28;20598;-74
2022/04/08 10:23:08;;;;;;;4.30;2.20;;;;;;;;;;5031712;28;20204;-74
2022/04/08 10:25:40;;;;;;;5.57;2.30;;;;;;;;;;5033741;28;20214;-73
2022/04/08 10:28:09;;;;;;;5.27;2.40;;;;;;;;;;5035814;28;20242;-74
2022/04/08 10:30:44;;;;;;;3.73;2.13;;;;;;;;;;5035470;28;20204;-74
2022/04/08 10:33:13;;;;;;;3.63;2.17;;;;;;;;;;5035457;28;20199;-74
2022/04/08 10:35:53;;;;;;;5.17;2.13;;;;;;;;;;5028668;28;20545;-74
2022/04/08 10:38:22;;;;;;;5.17;2.30;;;;;;;;;;5015118;28;20251;-73
2022/04/08 10:40:57;;;;;;;3.57;2.30;;;;;;;;;;5015570;28;20287;-73
2022/04/08 10:43:26;;;;;;;2.73;1.87;;;;;;;;;;5025279;28;20200;-73
2022/04/08 10:45:56;;;;;;;5.70;2.00;;;;;;;;;;5035294;28;20693;-73
2022/04/08 10:48:31;;;;;;;2.67;1.80;;;;;;;;;;5035467;28;20220;-74
2022/04/08 10:51:05;;;;;;;5.90;2.20;;;;;;;;;;5035077;28;20199;-73
2022/04/08 10:53:40;;;;;;;4.03;2.00;;;;;;;;;;5034517;28;20203;-74
2022/04/08 10:56:12;;;;;;;5.67;2.40;;;;;;;;;;5031778;28;20539;-74
2022/04/08 10:58:42;;;;;;;4.17;2.40;;;;;;;;;;5015422;28;20216;-73
2022/04/08 11:01:21;;;;;;;5.33;1.80;;;;;;;;;;5015081;28;20208;-73
2022/04/08 11:03:54;;;;;;;4.07;2.10;;;;;;;;;;5027089;28;20232;-74
2022/04/08 11:06:24;;;;;;;5.43;2.17;;;;;;;;;;5033031;28;20200;-73
2022/04/08 11:08:53;;;;;;;4.23;2.20;;;;;;;;;;5034488;28;20551;-74
2022/04/08 11:11:30;;;;;;;6.13;2.30;;;;;;;;;;5029335;28;20200;-73
2022/04/08 11:14:01;;;;;;;5.63;2.20;;;;;;;;;;5033140;28;20663;-73
2022/04/08 11:16:30;;;;;;;2.63;2.17;;;;;;;;;;5025672;28;20663;-73
2022/04/08 11:18:59;;;;;;;3.47;1.70;;;;;;;;;;5023921;28;20224;-73
2022/04/08 11:21:29;;;;;;;3.67;1.90;;;;;;;;;;5034466;28;20257;-74
2022/04/08 11:23:59;;;;;;;3.83;1.77;;;;;;;;;;5027352;28;20262;-73
2022/04/08 11:26:28;;;;;;;2.77;1.50;;;;;;;;;;5032057;28;20787;-73
2022/04/08 11:28:58;;;;;;;4.00;1.97;;;;;;;;;;5024810;28;20192;-73
2022/04/08 11:31:36;;;;;;;3.87;1.77;;;;;;;;;;5022836;28;20232;-73
2022/04/08 11:34:05;;;;;;;4.83;1.60;;;;;;;;;;5016736;28;20670;-73
2022/04/08 11:36:34;;;;;;;3.80;1.70;;;;;;;;;;5031470;28;20613;-73
2022/04/08 11:39:04;;;;;;;3.37;1.73;;;;;;;;;;5027375;28;21007;-73
2022/04/08 11:41:35;;;;;;;2.83;2.00;;;;;;;;;;5032613;28;20208;-73
2022/04/08 11:44:07;;;;;;;4.27;2.00;;;;;;;;;;5021468;28;20227;-73
2022/04/08 11:46:36;;;;;;;4.50;2.10;;;;;;;;;;5020904;28;20529;-73
2022/04/08 11:49:05;;;;;;;3.87;1.90;;;;;;;;;;5029361;28;20203;-73
2022/04/08 11:51:34;;;;;;;4.73;2.10;;;;;;;;;;5027083;28;20575;-73
2022/04/08 11:54:04;;;;;;;5.67;2.17;;;;;;;;;;5018334;28;20223;-73
2022/04/08 11:56:33;;;;;;;3.67;2.20;;;;;;;;;;5026790;28;20275;-73
2022/04/08 11:59:02;;;;;;;8.10;1.97;;;;;;;;;;5026419;28;20723;-73
2022/04/08 12:01:32;;;;;;;3.63;1.90;;;;;;;;;;5027087;28;20215;-73
2022/04/08 12:04:02;;;;;;;3.67;1.83;;;;;;;;;;5026890;28;20210;-73
2022/04/08 12:06:37;;;;;;;5.00;1.90;;;;;;;;;;5032350;28;20208;-73
2022/04/08 12:09:08;;;;;;;3.20;1.60;;;;;;;;;;5013910;28;20192;-73
2022/04/08 12:11:37;;;;;;;3.30;1.70;;;;;;;;;;5015381;28;20235;-73
2022/04/08 12:14:08;;;;;;;6.57;1.80;;;;;;;;;;5025290;28;20247;-73
2022/04/08 12:16:39;;;;;;;4.73;1.90;;;;;;;;;;5022118;28;20228;-73
2022/04/08 12:19:08;;;;;;;4.23;1.80;;;;;;;;;;5019415;28;20254;-73
2022/04/08 12:21:56;;;;;;;3.57;1.70;;;;;;;;;;5033062;28;20203;-73
2022/04/08 12:24:29;;;;;;;4.17;1.53;;;;;;;;;;5027318;28;20214;-73
2022/04/08 12:26:58;;;;;;;5.07;1.80;;;;;;;;;;5023798;28;20216;-73
2022/04/08 12:29:30;;;;;;;3.63;1.77;;;;;;;;;;5028748;28;20666;-73
2022/04/08 12:32:01;;;;;;;4.73;1.90;;;;;;;;;;5028227;28;20408;-73
2022/04/08 12:34:30;;;;;;;3.07;1.60;;;;;;;;;;5017749;28;20349;-73
2022/04/08 12:36:58;;;;;;;3.27;1.90;;;;;;;;;;5021554;28;20230;-73
2022/04/08 12:39:27;;;;;;;2.90;1.50;;;;;;;;;;5017192;28;20612;-73
2022/04/08 12:41:59;;;;;;;3.30;1.90;;;;;;;;;;5023898;28;20203;-72
2022/04/08 12:44:28;;;;;;;3.37;1.80;;;;;;;;;;5032453;28;20202;-73
2022/04/08 12:46:56;;;;;;;3.80;1.67;;;;;;;;;;5027870;28;20234;-73
2022/04/08 12:49:27;;;;;;;5.67;1.70;;;;;;;;;;5022228;28;20258;-73
2022/04/08 12:51:56;;;;;;;4.30;1.50;;;;;;;;;;5029985;28;20207;-73
2022/04/08 12:54:24;;;;;;;2.47;1.33;;;;;;;;;;5020703;28;20215;-73
2022/04/08 12:56:53;;;;;;;3.43;1.60;;;;;;;;;;5018485;28;20278;-73
2022/04/08 12:59:21;;;;;;;4.70;1.67;;;;;;;;;;5031729;28;20207;-73
2022/04/08 13:01:50;;;;;;;2.20;1.60;;;;;;;;;;5026274;28;20204;-72
2022/04/08 13:04:19;;;;;;;2.93;1.50;;;;;;;;;;5028226;28;20441;-73
2022/04/08 13:06:49;;;;;;;2.63;1.60;;;;;;;;;;5020103;28;20636;-74
2022/04/08 13:09:19;;;;;;;3.20;1.73;;;;;;;;;;5021830;28;20206;-73
2022/04/08 13:11:47;;;;;;;4.33;1.80;;;;;;;;;;5031189;28;20207;-74
2022/04/08 13:14:16;;;;;;;4.20;1.90;;;;;;;;;;5024806;28;20279;-73
2022/04/08 13:16:45;;;;;;;3.73;1.80;;;;;;;;;;4675255;28;10000546;-73
2022/04/08 13:19:15;;;;;;;4.50;2.07;;;;;;;;;;5016346;28;20281;-73
2022/04/08 13:21:44;;;;;;;5.50;2.20;;;;;;;;;;5024165;28;21061;-73
2022/04/08 13:24:13;;;;;;;6.43;2.17;;;;;;;;;;5020973;28;20651;-73
2022/04/08 13:26:42;;;;;;;3.87;2.00;;;;;;;;;;5020197;28;20219;-73
2022/04/08 13:29:10;;;;;;;3.17;2.00;;;;;;;;;;5021224;28;20211;-73
2022/04/08 13:31:39;;;;;;;5.40;2.10;;;;;;;;;;5030486;28;20208;-73
2022/04/08 13:34:07;;;;;;;4.70;2.00;;;;;;;;;;5028271;28;20239;-73
2022/04/08 13:36:56;;;;;;;3.93;1.83;;;;;;;;;;5023233;28;20323;-73
2022/04/08 13:39:26;;;;;;;5.20;2.17;;;;;;;;;;5024084;28;20204;-74
2022/04/08 13:41:54;;;;;;;5.27;2.07;;;;;;;;;;5023414;28;20258;-73
2022/04/08 13:44:23;;;;;;;4.00;2.00;;;;;;;;;;5019167;28;20230;-73
2022/04/08 13:46:51;;;;;;;3.10;1.70;;;;;;;;;;5022688;28;20220;-73
2022/04/08 13:49:20;;;;;;;4.57;1.80;;;;;;;;;;5024014;28;20204;-73
2022/04/08 13:51:48;;;;;;;9.40;2.10;;;;;;;;;;5028130;28;20575;-74
2022/04/08 13:54:17;;;;;;;4.17;2.23;;;;;;;;;;5015320;28;20273;-73
2022/04/08 13:56:47;;;;;;;2.90;2.00;;;;;;;;;;5030987;28;20277;-73
2022/04/08 13:59:16;;;;;;;5.37;3.93;;;;;;;;;;5026683;28;20200;-74
2022/04/08 14:01:44;;;;;;;6.47;3.57;;;;;;;;;;5030857;28;20227;-73
2022/04/08 14:04:14;;;;;;;5.73;2.60;;;;;;;;;;5025232;28;20200;-73
2022/04/08 14:06:42;;;;;;;5.87;1.83;;;;;;;;;;5018772;28;20229;-74
2022/04/08 14:09:11;;;;;;;3.40;1.67;;;;;;;;;;5019037;28;20216;-73
2022/04/08 14:11:40;;;;;;;5.33;2.67;;;;;;;;;;5022193;28;20212;-73
2022/04/08 14:14:10;;;;;;;4.73;1.93;;;;;;;;;;5031672;28;20746;-73
2022/04/08 14:16:39;;;;;;;4.43;1.90;;;;;;;;;;5023003;28;20238;-74
2022/04/08 14:19:07;;;;;;;6.77;2.57;;;;;;;;;;5033166;28;20238;-73
2022/04/08 14:21:36;;;;;;;5.03;2.03;;;;;;;;;;5024104;28;20231;-74
2022/04/08 14:24:04;;;;;;;4.70;1.73;;;;;;;;;;5034762;28;20204;-74
2022/04/08 14:26:33;;;;;;;2.57;1.50;;;;;;;;;;5032864;28;20226;-74
2022/04/08 14:29:02;;;;;;;4.37;1.87;;;;;;;;;;5029258;28;20203;-74
2022/04/08 14:31:32;;;;;;;3.00;1.73;;;;;;;;;;5031466;28;20211;-74
2022/04/08 14:34:01;;;;;;;2.90;1.67;;;;;;;;;;5031680;28;20234;-73
2022/04/08 14:36:29;;;;;;;3.33;1.77;;;;;;;;;;5029876;28;20207;-74
2022/04/08 14:38:58;;;;;;;4.93;2.00;;;;;;;;;;5023070;28;20608;-74
2022/04/08 14:41:26;;;;;;;5.73;1.97;;;;;;;;;;5029180;28;20216;-74
2022/04/08 14:43:55;;;;;;;5.47;1.90;;;;;;;;;;5022430;28;20211;-73
2022/04/08 14:46:23;;;;;;;5.77;2.00;;;;;;;;;;5013917;28;20208;-74
2022/04/08 14:48:53;;;;;;;4.97;1.93;;;;;;;;;;5019598;28;20319;-74
2022/04/08 14:51:22;;;;;;;4.77;2.23;;;;;;;;;;5024318;28;20668;-74
2022/04/08 14:53:54;;;;;;;3.97;1.77;;;;;;;;;;5025758;28;20224;-74
2022/04/08 14:56:23;;;;;;;6.07;2.20;;;;;;;;;;5025978;28;20645;-73
2022/04/08 14:58:52;;;;;;;4.70;2.50;;;;;;;;;;5022923;28;20764;-73
2022/04/08 15:01:24;;;;;;;2.53;1.80;;;;;;;;;;5023525;28;20329;-73